createdAt,value
2018-12-11T00:01:17.107Z,4.27
2018-12-11T00:03:45.387Z,4.30
2018-12-11T00:06:13.414Z,4.34
2018-12-11T00:08:41.021Z,4.38
2018-12-11T00:11:08.635Z,4.41
2018-12-11T00:13:36.222Z,4.45
2018-12-11T00:16:04.433Z,4.46
2018-12-11T00:18:32.054Z,4.47
2018-12-11T00:21:00.096Z,4.41
2018-12-11T00:23:27.718Z,4.34
2018-12-11T00:25:56.116Z,4.30
2018-12-11T00:28:23.724Z,4.28
2018-12-11T00:30:51.802Z,4.22
2018-12-11T00:33:19.470Z,4.21
2018-12-11T00:35:47.097Z,4.23
2018-12-11T00:38:15.045Z,4.27
2018-12-11T00:40:42.620Z,4.29
2018-12-11T00:43:10.253Z,4.33
2018-12-11T00:45:37.854Z,4.35
2018-12-11T00:48:05.473Z,4.35
2018-12-11T00:50:33.047Z,4.35
2018-12-11T00:53:00.693Z,4.35
2018-12-11T00:55:28.761Z,4.34
2018-12-11T00:57:56.393Z,4.35
2018-12-11T01:00:24.046Z,4.39
2018-12-11T01:02:52.069Z,4.42
2018-12-11T01:05:19.718Z,4.48
2018-12-11T01:07:48.101Z,4.50
2018-12-11T01:10:15.795Z,4.52
2018-12-11T01:12:43.773Z,4.54
2018-12-11T01:15:11.377Z,4.55
2018-12-11T01:17:38.985Z,4.58
2018-12-11T01:20:06.954Z,4.57
2018-12-11T01:22:34.582Z,4.52
2018-12-11T01:25:02.189Z,4.43
2018-12-11T01:27:29.849Z,4.34
2018-12-11T01:29:57.801Z,4.32
2018-12-11T01:32:25.439Z,4.28
2018-12-11T01:34:53.142Z,4.20
2018-12-11T01:37:20.798Z,4.15
2018-12-11T01:39:48.890Z,4.14
2018-12-11T01:42:16.517Z,4.12
2018-12-11T01:44:44.104Z,4.06
2018-12-11T01:47:11.701Z,4.02
2018-12-11T01:49:39.333Z,3.99
2018-12-11T01:52:07.013Z,3.96
2018-12-11T01:54:35.091Z,3.98
2018-12-11T01:57:02.698Z,4.04
2018-12-11T01:59:30.305Z,4.06
2018-12-11T02:01:57.884Z,4.01
2018-12-11T02:04:26.734Z,3.94
2018-12-11T02:06:54.331Z,3.88
2018-12-11T02:09:21.924Z,3.84
2018-12-11T02:11:49.518Z,3.80
2018-12-11T02:14:17.420Z,3.77
2018-12-11T02:16:45.029Z,3.75
2018-12-11T02:19:12.597Z,3.73
2018-12-11T02:21:42.163Z,3.75
2018-12-11T02:24:09.909Z,3.78
2018-12-11T02:26:37.499Z,3.78
2018-12-11T02:29:05.589Z,3.78
2018-12-11T02:31:33.228Z,3.78
2018-12-11T02:34:00.831Z,3.76
2018-12-11T02:36:28.513Z,3.77
2018-12-11T02:38:56.543Z,3.78
2018-12-11T02:41:24.142Z,3.78
2018-12-11T02:43:51.775Z,3.76
2018-12-11T02:46:19.802Z,3.75
2018-12-11T02:48:47.369Z,3.77
2018-12-11T02:51:14.949Z,3.81
2018-12-11T02:53:42.557Z,3.87
2018-12-11T02:56:10.645Z,3.91
2018-12-11T02:58:38.263Z,3.96
2018-12-11T03:01:05.952Z,4.00
2018-12-11T03:03:33.563Z,4.05
2018-12-11T03:06:01.651Z,4.09
2018-12-11T03:08:29.266Z,4.11
2018-12-11T03:10:56.889Z,4.12
2018-12-11T03:13:24.511Z,4.13
2018-12-11T03:15:52.596Z,4.13
2018-12-11T03:18:20.195Z,4.09
2018-12-11T03:20:47.817Z,4.06
2018-12-11T03:23:15.392Z,4.05
2018-12-11T03:25:43.362Z,4.04
2018-12-11T03:28:10.982Z,4.00
2018-12-11T03:30:38.645Z,3.95
2018-12-11T03:33:06.266Z,3.92
2018-12-11T03:35:34.313Z,3.90
2018-12-11T03:38:01.939Z,3.92
2018-12-11T03:40:29.960Z,3.96
2018-12-11T03:42:57.594Z,3.99
2018-12-11T03:45:25.625Z,4.04
2018-12-11T03:47:53.315Z,4.09
2018-12-11T03:50:20.947Z,4.14
2018-12-11T03:52:48.635Z,4.18
2018-12-11T03:55:21.280Z,4.21
2018-12-11T03:57:48.847Z,4.21
2018-12-11T04:00:16.417Z,4.23
2018-12-11T04:02:44.396Z,4.25
2018-12-11T04:05:12.005Z,4.28
2018-12-11T04:07:39.588Z,4.30
2018-12-11T04:10:07.503Z,4.31
2018-12-11T04:12:35.365Z,4.31
2018-12-11T04:15:02.949Z,4.32
2018-12-11T04:17:30.895Z,4.28
2018-12-11T04:19:58.465Z,4.20
2018-12-11T04:22:26.077Z,4.13
2018-12-11T04:24:53.673Z,4.11
2018-12-11T04:27:21.717Z,4.12
2018-12-11T04:29:49.323Z,4.09
2018-12-11T04:32:16.939Z,4.05
2018-12-11T04:34:44.853Z,4.03
2018-12-11T04:37:12.515Z,4.01
2018-12-11T04:39:40.125Z,3.98
2018-12-11T04:42:07.745Z,3.97
2018-12-11T04:44:35.692Z,3.96
2018-12-11T04:47:03.339Z,3.93
2018-12-11T04:49:30.986Z,3.93
2018-12-11T04:51:58.983Z,3.96
2018-12-11T04:54:26.621Z,4.03
2018-12-11T04:56:54.265Z,4.09
2018-12-11T04:59:21.821Z,4.14
2018-12-11T05:01:49.830Z,4.18
2018-12-11T05:04:17.478Z,4.17
2018-12-11T05:06:45.954Z,4.16
2018-12-11T05:09:13.551Z,4.16
2018-12-11T05:11:41.513Z,4.17
2018-12-11T05:14:09.152Z,4.16
2018-12-11T05:16:36.765Z,4.15
2018-12-11T05:19:05.775Z,4.11
2018-12-11T05:21:33.531Z,4.06
2018-12-11T05:24:01.097Z,3.97
2018-12-11T05:26:28.666Z,3.91
2018-12-11T05:28:56.704Z,3.88
2018-12-11T05:31:24.321Z,3.83
2018-12-11T05:33:51.922Z,3.77
2018-12-11T05:36:19.871Z,3.73
2018-12-11T05:38:47.479Z,3.70
2018-12-11T05:41:15.052Z,3.68
2018-12-11T05:43:43.070Z,3.65
2018-12-11T05:46:10.741Z,3.64
2018-12-11T05:48:38.326Z,3.67
2018-12-11T05:51:06.360Z,3.71
2018-12-11T05:53:33.967Z,3.78
2018-12-11T05:56:01.863Z,3.83
2018-12-11T05:58:29.861Z,3.90
2018-12-11T06:00:57.517Z,3.95
2018-12-11T06:03:25.118Z,4.00
2018-12-11T06:05:53.053Z,4.05
2018-12-11T06:08:20.757Z,4.10
2018-12-11T06:10:48.346Z,4.13
2018-12-11T06:13:16.346Z,4.17
2018-12-11T06:15:44.513Z,4.18
2018-12-11T06:18:12.072Z,4.17
2018-12-11T06:20:40.268Z,4.18
2018-12-11T06:23:07.921Z,4.19
2018-12-11T06:25:35.556Z,4.19
2018-12-11T06:28:03.499Z,4.17
2018-12-11T06:30:31.078Z,4.12
2018-12-11T06:32:58.707Z,4.05
2018-12-11T06:35:26.698Z,3.96
2018-12-11T06:37:54.288Z,3.90
2018-12-11T06:40:22.565Z,3.86
2018-12-11T06:42:50.628Z,3.83
2018-12-11T06:45:18.234Z,3.78
2018-12-11T06:47:45.874Z,3.74
2018-12-11T06:50:15.862Z,3.72
2018-12-11T06:52:43.448Z,3.68
2018-12-11T06:55:12.378Z,3.68
2018-12-11T06:57:40.274Z,3.72
2018-12-11T07:00:07.958Z,3.80
2018-12-11T07:02:35.572Z,3.86
2018-12-11T07:05:03.460Z,3.92
2018-12-11T07:07:31.042Z,3.99
2018-12-11T07:09:58.641Z,4.03
2018-12-11T07:12:26.601Z,4.09
2018-12-11T07:14:54.261Z,4.13
2018-12-11T07:17:21.868Z,4.14
2018-12-11T07:19:49.486Z,4.18
2018-12-11T07:22:17.093Z,4.20
2018-12-11T07:24:44.990Z,4.22
2018-12-11T07:27:12.560Z,4.24
2018-12-11T07:29:40.173Z,4.25
2018-12-11T07:32:08.129Z,4.21
2018-12-11T07:34:35.684Z,4.18
2018-12-11T07:37:03.275Z,4.16
2018-12-11T07:39:31.366Z,4.13
2018-12-11T07:41:59.030Z,4.14
2018-12-11T07:44:26.646Z,4.16
2018-12-11T07:46:57.585Z,4.19
2018-12-11T07:49:26.204Z,4.22
2018-12-11T07:51:53.814Z,4.23
2018-12-11T07:54:21.743Z,4.24
2018-12-11T07:56:49.505Z,4.26
2018-12-11T07:59:17.767Z,4.29
2018-12-11T08:01:45.750Z,4.30
2018-12-11T08:04:13.365Z,4.34
2018-12-11T08:06:40.955Z,4.35
2018-12-11T08:09:09.068Z,4.38
2018-12-11T08:11:36.672Z,4.42
2018-12-11T08:14:04.264Z,4.46
2018-12-11T08:16:32.632Z,4.51
2018-12-11T08:19:00.373Z,4.55
2018-12-11T08:21:27.993Z,4.56
2018-12-11T08:23:55.989Z,4.58
2018-12-11T08:26:23.625Z,4.59
2018-12-11T08:28:51.233Z,4.59
2018-12-11T08:31:19.222Z,4.59
2018-12-11T08:33:47.397Z,4.59
2018-12-11T08:36:15.031Z,4.60
2018-12-11T08:38:43.020Z,4.61
2018-12-11T08:41:10.655Z,4.63
2018-12-11T08:43:38.305Z,4.67
2018-12-11T08:46:06.181Z,4.69
2018-12-11T08:48:33.825Z,4.73
2018-12-11T08:51:01.433Z,4.76
2018-12-11T08:53:29.481Z,4.79
2018-12-11T08:55:57.100Z,4.82
2018-12-11T08:58:24.701Z,4.86
2018-12-11T09:00:53.373Z,4.87
2018-12-11T09:03:21.927Z,4.87
2018-12-11T09:05:49.533Z,4.87
2018-12-11T09:08:17.483Z,4.90
2018-12-11T09:10:45.133Z,4.91
2018-12-11T09:13:12.713Z,4.88
2018-12-11T09:15:40.695Z,4.88
2018-12-11T09:18:08.324Z,4.89
2018-12-11T09:20:35.921Z,4.91
2018-12-11T09:23:03.799Z,4.94
2018-12-11T09:25:31.731Z,4.97
2018-12-11T09:28:00.876Z,4.96
2018-12-11T09:30:30.029Z,5.02
2018-12-11T09:32:57.593Z,5.11
2018-12-11T09:35:26.512Z,5.19
2018-12-11T09:37:54.451Z,5.24
2018-12-11T09:40:24.588Z,5.25
2018-12-11T09:42:51.801Z,5.23
2018-12-11T09:45:19.721Z,5.21
2018-12-11T09:47:47.356Z,5.24
2018-12-11T09:50:14.981Z,5.28
2018-12-11T09:52:42.979Z,5.32
2018-12-11T09:55:10.593Z,5.38
2018-12-11T09:57:39.579Z,5.44
2018-12-11T10:00:10.461Z,5.44
2018-12-11T10:02:38.082Z,5.41
2018-12-11T10:05:05.709Z,5.39
2018-12-11T10:07:33.618Z,5.39
2018-12-11T10:10:01.277Z,5.41
2018-12-11T10:12:29.428Z,5.45
2018-12-11T10:14:57.527Z,5.48
2018-12-11T10:17:25.128Z,5.53
2018-12-11T10:19:52.733Z,5.57
2018-12-11T10:22:20.822Z,5.58
2018-12-11T10:24:48.457Z,5.58
2018-12-11T10:27:17.512Z,5.58
2018-12-11T10:29:46.289Z,5.59
2018-12-11T10:32:13.918Z,5.62
2018-12-11T10:34:41.541Z,5.67
2018-12-11T10:37:10.470Z,5.74
2018-12-11T10:39:38.102Z,5.80
2018-12-11T10:42:05.757Z,5.86
2018-12-11T10:44:34.491Z,5.96
2018-12-11T10:47:02.989Z,6.02
2018-12-11T10:49:30.601Z,6.05
2018-12-11T10:51:58.700Z,6.13
2018-12-11T10:54:26.320Z,6.15
2018-12-11T10:56:53.937Z,6.28
2018-12-11T10:59:22.753Z,6.48
2018-12-11T11:01:54.313Z,6.87
2018-12-11T11:04:22.865Z,7.18
2018-12-11T11:06:50.877Z,7.65
2018-12-11T11:09:18.458Z,7.80
2018-12-11T11:11:46.086Z,7.82
2018-12-11T11:14:14.120Z,7.69
2018-12-11T11:16:41.721Z,7.55
2018-12-11T11:19:09.322Z,7.46
2018-12-11T11:21:38.161Z,7.55
2018-12-11T11:24:05.737Z,7.62
2018-12-11T11:26:33.490Z,7.61
2018-12-11T11:29:01.393Z,7.68
2018-12-11T11:31:28.977Z,7.77
2018-12-11T11:33:58.471Z,7.78
2018-12-11T11:36:26.631Z,7.77
2018-12-11T11:38:54.233Z,7.72
2018-12-11T11:41:21.829Z,7.58
2018-12-11T11:43:49.816Z,7.43
2018-12-11T11:46:17.421Z,7.30
2018-12-11T11:48:45.068Z,7.22
2018-12-11T11:51:13.083Z,7.18
2018-12-11T11:53:40.648Z,7.11
2018-12-11T11:56:12.234Z,7.04
2018-12-11T11:58:40.313Z,7.01
2018-12-11T12:01:07.985Z,7.03
2018-12-11T12:03:35.592Z,7.07
2018-12-11T12:06:03.507Z,7.11
2018-12-11T12:08:31.163Z,7.07
2018-12-11T12:10:58.829Z,7.02
2018-12-11T12:13:27.961Z,6.97
2018-12-11T12:15:56.321Z,6.95
2018-12-11T12:18:27.466Z,6.95
2018-12-11T12:20:55.618Z,6.95
2018-12-11T12:23:23.466Z,6.94
2018-12-11T12:25:52.470Z,6.91
2018-12-11T12:28:20.134Z,6.89
2018-12-11T12:30:48.269Z,6.91
2018-12-11T12:33:16.198Z,6.97
2018-12-11T12:35:44.434Z,7.06
2018-12-11T12:38:12.032Z,7.15
2018-12-11T12:40:40.110Z,7.21
2018-12-11T12:43:07.778Z,7.22
2018-12-11T12:45:35.646Z,7.22
2018-12-11T12:48:03.757Z,7.22
2018-12-11T12:50:32.654Z,7.22
2018-12-11T12:53:00.267Z,7.19
2018-12-11T12:55:28.233Z,7.16
2018-12-11T12:57:56.719Z,7.18
2018-12-11T13:00:24.342Z,7.19
2018-12-11T13:02:52.545Z,7.16
2018-12-11T13:05:20.174Z,7.11
2018-12-11T13:07:48.726Z,7.07
2018-12-11T13:10:16.680Z,7.03
2018-12-11T13:12:44.442Z,7.02
2018-12-11T13:15:12.081Z,6.98
2018-12-11T13:17:40.103Z,6.98
2018-12-11T13:20:10.680Z,6.99
2018-12-11T13:22:38.269Z,6.97
2018-12-11T13:25:06.274Z,6.95
2018-12-11T13:27:33.876Z,6.93
2018-12-11T13:30:01.468Z,6.89
2018-12-11T13:32:29.358Z,6.85
2018-12-11T13:34:58.389Z,6.80
2018-12-11T13:37:26.187Z,6.79
2018-12-11T13:39:54.123Z,6.79
2018-12-11T13:42:21.729Z,6.86
2018-12-11T13:44:49.341Z,6.92
2018-12-11T13:47:17.441Z,6.98
2018-12-11T13:49:45.684Z,7.02
2018-12-11T13:52:13.904Z,7.04
2018-12-11T13:54:41.841Z,7.01
2018-12-11T13:57:09.524Z,6.95
2018-12-11T13:59:37.292Z,6.89
2018-12-11T14:02:05.247Z,6.81
2018-12-11T14:04:33.589Z,6.76
2018-12-11T14:07:01.292Z,6.74
2018-12-11T14:09:34.379Z,6.71
2018-12-11T14:12:02.826Z,6.67
2018-12-11T14:14:30.446Z,6.66
2018-12-11T14:16:58.472Z,6.63
2018-12-11T14:19:26.102Z,6.61
2018-12-11T14:21:53.725Z,6.58
2018-12-11T14:24:22.556Z,6.57
2018-12-11T14:26:50.203Z,6.55
2018-12-11T14:29:17.830Z,6.53
2018-12-11T14:31:45.857Z,6.49
2018-12-11T14:34:13.445Z,6.47
2018-12-11T14:36:41.750Z,6.45
2018-12-11T14:39:09.758Z,6.43
2018-12-11T14:41:37.389Z,6.42
2018-12-11T14:44:05.014Z,6.39
2018-12-11T14:46:33.599Z,6.37
2018-12-11T14:49:01.237Z,6.34
2018-12-11T14:51:29.917Z,6.33
2018-12-11T14:53:58.816Z,6.29
2018-12-11T14:56:26.436Z,6.28
2018-12-11T14:58:54.762Z,6.25
2018-12-11T15:01:23.514Z,6.23
2018-12-11T15:03:51.229Z,6.22
2018-12-11T15:06:19.525Z,6.19
2018-12-11T15:08:47.401Z,6.17
2018-12-11T15:11:15.780Z,6.14
2018-12-11T15:13:43.629Z,6.11
2018-12-11T15:16:12.372Z,6.09
2018-12-11T15:18:40.112Z,6.05
2018-12-11T15:21:08.347Z,6.02
2018-12-11T15:23:36.387Z,6.00
2018-12-11T15:26:05.430Z,5.99
2018-12-11T15:28:33.237Z,5.99
2018-12-11T15:31:01.213Z,5.98
2018-12-11T15:33:28.792Z,5.94
2018-12-11T15:35:56.383Z,5.92
2018-12-11T15:38:24.565Z,5.89
2018-12-11T15:40:52.947Z,5.87
2018-12-11T15:43:21.667Z,5.83
2018-12-11T15:45:53.408Z,5.78
2018-12-11T15:48:22.358Z,5.70
2018-12-11T15:50:51.958Z,5.66
2018-12-11T15:53:19.968Z,5.60
2018-12-11T15:55:47.594Z,5.58
2018-12-11T15:58:15.758Z,5.55
2018-12-11T16:00:43.827Z,5.52
2018-12-11T16:03:11.696Z,5.47
2018-12-11T16:05:39.597Z,5.45
2018-12-11T16:08:07.587Z,5.45
2018-12-11T16:10:35.213Z,5.42
2018-12-11T16:13:03.536Z,5.42
2018-12-11T16:15:32.697Z,5.41
2018-12-11T16:18:00.742Z,5.42
2018-12-11T16:20:28.715Z,5.42
2018-12-11T16:22:57.320Z,5.42
2018-12-11T16:25:26.699Z,5.43
2018-12-11T16:27:57.660Z,5.43
2018-12-11T16:30:26.289Z,5.42
2018-12-11T16:32:55.081Z,5.38
2018-12-11T16:35:23.315Z,5.34
2018-12-11T16:37:51.541Z,5.30
2018-12-11T16:40:20.143Z,5.25
2018-12-11T16:42:47.776Z,5.19
2018-12-11T16:45:15.861Z,5.17
2018-12-11T16:47:45.556Z,5.17
2018-12-11T16:50:13.167Z,5.19
2018-12-11T16:52:42.914Z,5.21
2018-12-11T16:55:10.603Z,5.20
2018-12-11T16:57:38.353Z,5.21
2018-12-11T17:00:06.390Z,5.20
2018-12-11T17:02:33.982Z,5.20
2018-12-11T17:05:01.566Z,5.21
2018-12-11T17:07:29.777Z,5.22
2018-12-11T17:09:57.573Z,5.22
2018-12-11T17:12:25.421Z,5.25
2018-12-11T17:14:54.746Z,5.28
2018-12-11T17:17:23.557Z,5.31
2018-12-11T17:19:51.213Z,5.33
2018-12-11T17:22:19.791Z,5.34
2018-12-11T17:24:47.461Z,5.35
2018-12-11T17:27:15.457Z,5.38
2018-12-11T17:29:43.037Z,5.38
2018-12-11T17:32:10.712Z,5.39
2018-12-11T17:34:38.741Z,5.40
2018-12-11T17:37:06.373Z,5.41
2018-12-11T17:39:33.948Z,5.42
2018-12-11T17:42:01.916Z,5.42
2018-12-11T17:44:29.558Z,5.43
2018-12-11T17:47:00.811Z,5.40
2018-12-11T17:49:28.804Z,5.40
2018-12-11T17:52:02.743Z,5.38
2018-12-11T17:54:31.238Z,5.36
2018-12-11T17:56:59.509Z,5.33
2018-12-11T17:59:28.785Z,5.32
2018-12-11T18:02:01.331Z,5.32
2018-12-11T18:04:31.130Z,5.32
2018-12-11T18:06:58.928Z,5.34
2018-12-11T18:09:28.533Z,5.35
2018-12-11T18:11:56.184Z,5.37
2018-12-11T18:14:24.666Z,5.38
2018-12-11T18:16:52.578Z,5.37
2018-12-11T18:19:24.097Z,5.38
2018-12-11T18:21:52.504Z,5.38
2018-12-11T18:24:20.508Z,5.35
2018-12-11T18:26:50.472Z,5.35
2018-12-11T18:29:18.200Z,5.37
2018-12-11T18:31:46.892Z,5.37
2018-12-11T18:34:14.736Z,5.37
2018-12-11T18:36:42.444Z,5.37
2018-12-11T18:39:13.603Z,5.36
2018-12-11T18:41:41.273Z,5.37
2018-12-11T18:44:08.840Z,5.37
2018-12-11T18:46:36.750Z,5.37
2018-12-11T18:49:05.281Z,5.36
2018-12-11T18:51:33.404Z,5.37
2018-12-11T18:54:02.292Z,5.37
2018-12-11T18:56:29.928Z,5.36
2018-12-11T18:58:57.532Z,5.34
2018-12-11T19:01:28.201Z,5.32
2018-12-11T19:03:56.514Z,5.32
2018-12-11T19:06:24.769Z,5.30
2018-12-11T19:08:53.679Z,5.26
2018-12-11T19:11:23.562Z,5.25
2018-12-11T19:13:51.966Z,5.24
2018-12-11T19:16:20.045Z,5.25
2018-12-11T19:18:48.326Z,5.25
2018-12-11T19:21:16.866Z,5.26
2018-12-11T19:23:45.141Z,5.23
2018-12-11T19:26:13.077Z,5.18
2018-12-11T19:28:40.666Z,5.17
2018-12-11T19:31:13.580Z,5.18
2018-12-11T19:33:41.993Z,5.20
2018-12-11T19:36:09.918Z,5.21
2018-12-11T19:38:38.618Z,5.21
2018-12-11T19:41:09.333Z,5.20
2018-12-11T19:43:37.313Z,5.17
2018-12-11T19:46:06.073Z,5.17
2018-12-11T19:48:33.717Z,5.18
2018-12-11T19:51:04.625Z,5.20
2018-12-11T19:53:33.025Z,5.20
2018-12-11T19:56:01.081Z,5.22
2018-12-11T19:58:28.660Z,5.22
2018-12-11T20:00:56.253Z,5.23
2018-12-11T20:03:24.149Z,5.23
2018-12-11T20:05:51.771Z,5.24
2018-12-11T20:08:19.374Z,5.24
2018-12-11T20:10:49.870Z,5.25
2018-12-11T20:13:17.478Z,5.25
2018-12-11T20:15:46.065Z,5.24
2018-12-11T20:18:14.024Z,5.23
2018-12-11T20:20:43.240Z,5.21
2018-12-11T20:23:11.470Z,5.20
2018-12-11T20:25:42.216Z,5.18
2018-12-11T20:28:09.901Z,5.16
2018-12-11T20:30:37.566Z,5.13
2018-12-11T20:33:06.629Z,5.08
2018-12-11T20:35:35.057Z,5.05
2018-12-11T20:38:03.654Z,5.03
2018-12-11T20:40:32.450Z,5.03
2018-12-11T20:43:00.553Z,5.02
2018-12-11T20:45:28.185Z,5.00
2018-12-11T20:48:00.899Z,4.97
2018-12-11T20:50:28.778Z,4.93
2018-12-11T20:52:56.621Z,4.87
2018-12-11T20:55:24.502Z,4.81
2018-12-11T20:57:52.631Z,4.74
2018-12-11T21:00:20.276Z,4.70
2018-12-11T21:02:48.525Z,4.67
2018-12-11T21:05:16.526Z,4.67
2018-12-11T21:07:44.136Z,4.70
2018-12-11T21:10:12.099Z,4.74
2018-12-11T21:12:39.675Z,4.76
2018-12-11T21:15:07.788Z,4.79
2018-12-11T21:17:37.846Z,4.81
2018-12-11T21:20:05.494Z,4.79
2018-12-11T21:22:33.146Z,4.79
2018-12-11T21:25:01.224Z,4.78
2018-12-11T21:27:28.873Z,4.79
2018-12-11T21:29:56.488Z,4.80
2018-12-11T21:32:24.105Z,4.81
2018-12-11T21:34:51.985Z,4.83
2018-12-11T21:37:19.544Z,4.84
2018-12-11T21:39:47.171Z,4.84
2018-12-11T21:42:15.237Z,4.83
2018-12-11T21:44:43.773Z,4.78
2018-12-11T21:47:11.398Z,4.70
2018-12-11T21:49:39.333Z,4.62
2018-12-11T21:52:08.332Z,4.56
2018-12-11T21:54:36.727Z,4.51
2018-12-11T21:57:04.654Z,4.47
2018-12-11T21:59:32.252Z,4.45
2018-12-11T22:01:59.830Z,4.40
2018-12-11T22:04:28.448Z,4.37
2018-12-11T22:06:56.067Z,4.34
2018-12-11T22:09:23.730Z,4.29
2018-12-11T22:11:51.725Z,4.24
2018-12-11T22:14:19.433Z,4.19
2018-12-11T22:16:47.002Z,4.14
2018-12-11T22:19:14.970Z,4.06
2018-12-11T22:21:43.133Z,3.98
2018-12-11T22:24:10.747Z,3.91
2018-12-11T22:26:39.483Z,3.87
2018-12-11T22:29:07.697Z,3.86
2018-12-11T22:31:35.282Z,3.84
2018-12-11T22:34:03.042Z,3.83
2018-12-11T22:36:31.058Z,3.82
2018-12-11T22:38:58.634Z,3.81
2018-12-11T22:41:26.896Z,3.78
2018-12-11T22:43:54.554Z,3.75
2018-12-11T22:46:22.673Z,3.73
2018-12-11T22:48:50.437Z,3.72
2018-12-11T22:51:18.338Z,3.72
2018-12-11T22:53:46.377Z,3.71
2018-12-11T22:56:13.967Z,3.72
2018-12-11T22:58:41.691Z,3.75
2018-12-11T23:01:09.364Z,3.80
2018-12-11T23:03:37.381Z,3.85
2018-12-11T23:06:05.032Z,3.92
2018-12-11T23:08:32.621Z,4.00
2018-12-11T23:11:00.221Z,4.04
2018-12-11T23:13:28.169Z,4.10
2018-12-11T23:15:56.297Z,4.15
2018-12-11T23:18:23.814Z,4.20
2018-12-11T23:20:51.345Z,4.22
2018-12-11T23:23:18.915Z,4.25
2018-12-11T23:25:46.483Z,4.28
2018-12-11T23:28:14.423Z,4.32
2018-12-11T23:30:41.928Z,4.33
2018-12-11T23:33:09.605Z,4.34
2018-12-11T23:35:37.135Z,4.36
2018-12-11T23:38:05.092Z,4.37
2018-12-11T23:40:32.643Z,4.38
2018-12-11T23:43:00.139Z,4.37
2018-12-11T23:45:27.644Z,4.39
2018-12-11T23:47:55.602Z,4.39
2018-12-11T23:50:24.121Z,4.37
2018-12-11T23:52:51.657Z,4.39
2018-12-11T23:55:19.164Z,4.39
2018-12-11T23:57:48.450Z,4.38
